Latest Weather Observations for Eildon Fire Tower

IDV60801

Issued at 9:02 pm EST Saturday 23 July 2016 (issued every 30 minutes, with the page automatically refreshed every 10 minutes)

About weather observations | Map of weather stations | Latest weather observations for VIC | Other Formats
Station Details ID: 088164 Name: EILDON FIRE TOWER Lat: -37.21 Lon: 145.84 Height: 637.0 m
Data from the previous 72 hours. | See also: Recent months at Eildon Fire Tower
Date/Time
EST
Temp
°C
App
Temp
°C
Dew
Point
°C
Rel
Hum
%
Delta-T
°C
Wind Press
QNH
hPa
Press
MSL
hPa
Rain since
9am
mm
Dir  Spd
km/h
Gust
km/h
Spd
kts
Gust
kts
23/09:00pm 2.3 -3.0 1.7 96 0.2 W 19 26 10 14 - - 0.8
23/08:30pm 2.3 -4.0 1.6 95 0.3 W 24 33 13 18 - - 0.8
23/08:00pm 2.1 -3.8 1.4 95 0.3 WSW 22 28 12 15 - - 0.8
23/07:30pm 2.2 -4.5 1.5 95 0.3 WSW 26 35 14 19 - - 0.8
23/07:00pm 2.9 -2.0 1.9 93 0.4 WSW 17 22 9 12 - - 0.4
23/06:30pm 2.8 -3.5 1.8 93 0.4 W 24 33 13 18 - - 0.4
23/06:00pm 3.1 -2.5 1.3 88 0.7 W 20 30 11 16 - - 0.2
23/05:30pm 3.0 -2.4 1.2 88 0.7 W 19 28 10 15 - - 0.2
23/05:00pm 3.1 -4.4 1.2 87 0.8 WSW 30 39 16 21 - - 0.2
23/04:30pm 2.8 -4.7 1.5 91 0.5 WSW 30 37 16 20 - - 0.2
23/04:00pm 3.8 -6.3 0.1 77 1.5 W 43 57 23 31 - - 0.2
23/03:33pm 4.4 -3.7 -0.2 72 1.8 W 32 50 17 27 - - 0.2
23/03:30pm 4.5 -3.7 0.3 74 1.7 W 33 48 18 26 - - 0.2
23/03:00pm 5.4 -2.9 -0.2 67 2.2 W 33 52 18 28 - - 0.2
23/02:57pm 5.5 -2.6 -0.3 66 2.3 W 32 52 17 28 - - 0.2
23/02:30pm 5.0 -2.7 0.0 70 2.0 W 30 41 16 22 - - 0.2
23/02:29pm 5.1 -2.9 0.1 70 2.0 W 32 50 17 27 - - 0.2
23/02:00pm 4.9 -3.6 0.7 74 1.7 WSW 35 46 19 25 - - 0.2
23/01:30pm 3.6 -5.0 0.0 77 1.4 WSW 35 50 19 27 - - 0.2
23/01:00pm 3.3 -4.5 1.8 90 0.6 WSW 32 43 17 23 - - 0.2
23/12:54pm 3.0 -5.5 1.2 88 0.7 WSW 35 56 19 30 - - 0.2
23/12:30pm 4.6 -3.7 0.0 72 1.8 WSW 33 48 18 26 - - 0.0
23/12:00pm 3.7 -7.2 -1.3 70 1.9 WSW 46 76 25 41 - - 0.0
23/11:32am 4.9 -6.0 -1.5 63 2.4 WSW 46 65 25 35 - - 0.0
23/11:30am 5.0 -6.3 -1.2 64 2.4 WSW 48 65 26 35 - - 0.0
23/11:00am 4.4 -6.2 -1.6 65 2.3 W 44 63 24 34 - - 0.0
23/10:36am 4.0 -6.9 -1.4 68 2.0 WSW 46 65 25 35 - - 0.0
23/10:30am 4.1 -7.2 -1.7 66 2.2 WSW 48 65 26 35 - - 0.0
23/10:05am 3.8 -6.7 -1.2 70 1.9 WSW 44 67 24 36 - - 0.0
23/10:00am 3.8 -6.6 -0.6 73 1.7 WSW 44 57 24 31 - - 0.0
23/09:37am 3.6 -6.7 0.1 78 1.4 WSW 44 63 24 34 - - 0.0
23/09:30am 3.5 -6.6 0.4 80 1.2 WSW 43 57 23 31 - - 0.0
23/09:00am 3.4 -7.9 1.0 84 1.0 WSW 50 65 27 35 - - 9.4
23/08:49am 3.3 -7.3 0.9 84 1.0 WSW 46 67 25 36 - - 9.4
23/08:30am 3.2 -8.8 1.3 87 0.8 WSW 54 65 29 35 - - 9.4
23/08:00am 3.0 -9.5 2.0 93 0.4 WSW 57 87 31 47 - - 9.4
23/07:53am 3.4 -9.1 1.9 90 0.6 WSW 57 87 31 47 - - 9.4
23/07:30am 3.5 -6.2 2.9 96 0.3 W 43 67 23 36 - - 9.4
23/07:00am 3.6 -5.3 3.2 97 0.2 W 39 50 21 27 - - 9.4
23/06:30am 3.7 -5.2 3.3 97 0.2 W 39 46 21 25 - - 9.4
23/06:00am 3.8 -4.3 3.4 97 0.2 W 35 43 19 23 - - 9.4
23/05:30am 3.9 -5.0 3.2 95 0.3 W 39 54 21 29 - - 9.2
23/05:02am 4.2 -5.5 2.9 91 0.6 W 43 65 23 35 - - 9.2
23/05:00am 4.2 -5.5 2.9 91 0.6 W 43 59 23 32 - - 9.2
23/04:30am 4.8 -3.9 2.3 84 1.0 W 37 63 20 34 - - 9.2
23/04:00am 4.6 -4.7 2.8 88 0.8 W 41 65 22 35 - - 9.2
23/03:31am 5.0 -4.4 2.4 83 1.1 W 41 61 22 33 - - 9.2
23/03:30am 5.0 -4.8 2.4 83 1.1 W 43 61 23 33 - - 9.2
23/03:08am 5.3 -3.8 2.1 80 1.3 WNW 39 76 21 41 - - 9.2
23/03:03am 5.3 -3.0 2.3 81 1.3 W 35 56 19 30 - - 9.2
23/03:00am 5.3 -3.4 2.3 81 1.3 W 37 56 20 30 - - 9.2
23/02:30am 5.6 -4.2 2.4 80 1.4 W 43 69 23 37 - - 9.2
23/02:05am 5.8 -1.8 3.1 83 1.2 WNW 32 50 17 27 - - 9.2
23/02:00am 6.0 -1.7 3.2 82 1.2 WNW 33 52 18 28 - - 9.2
23/01:42am 6.0 -1.1 3.3 83 1.2 WNW 30 48 16 26 - - 9.2
23/01:30am 6.2 -1.3 3.4 82 1.2 WNW 32 48 17 26 - - 9.2
23/01:00am 6.3 -3.5 3.3 81 1.3 W 44 70 24 38 - - 9.2
23/12:30am 6.2 -2.4 4.5 89 0.8 WNW 39 67 21 36 - - 9.2
23/12:04am 6.1 -1.7 4.7 91 0.6 WNW 35 54 19 29 - - 9.2
23/12:00am 6.0 -1.4 4.8 92 0.5 WNW 33 52 18 28 - - 9.2
 
Date/Time
EST
Temp
°C
App
Temp
°C
Dew
Point
°C
Rel
Hum
%
Delta-T
°C
Wind Press
QNH
hPa
Press
MSL
hPa
Rain since
9am
mm
Dir  Spd
km/h
Gust
km/h
Spd
kts
Gust
kts
22/11:30pm 6.0 -2.2 4.6 91 0.6 WNW 37 65 20 35 - - 9.0
22/11:00pm 6.0 -2.9 5.3 95 0.3 WNW 41 63 22 34 - - 9.0
22/10:40pm 6.4 0.1 5.7 95 0.3 NW 28 50 15 27 - - 8.4
22/10:30pm 6.5 0.2 5.6 94 0.4 NW 28 39 15 21 - - 8.0
22/10:00pm 6.6 0.7 5.9 95 0.3 NW 26 46 14 25 - - 7.6
22/09:30pm 6.6 1.8 5.7 94 0.4 NW 20 39 11 21 - - 7.2
22/09:00pm 6.8 1.3 6.1 95 0.3 NW 24 37 13 20 - - 6.8
22/08:30pm 6.9 2.8 6.3 96 0.3 NW 17 28 9 15 - - 6.6
22/08:00pm 7.0 3.3 6.3 95 0.3 NW 15 26 8 14 - - 5.6
22/07:30pm 6.9 2.8 6.2 95 0.3 W 17 26 9 14 - - 4.8
22/07:00pm 7.0 1.6 6.4 96 0.3 W 24 37 13 20 - - 4.2
22/06:30pm 7.0 1.6 6.4 96 0.3 W 24 37 13 20 - - 4.2
22/06:07pm 7.8 0.8 5.9 88 0.9 WNW 32 61 17 33 - - 2.8
22/06:00pm 9.2 3.2 7.2 87 1.0 NW 28 46 15 25 - - 2.2
22/05:59pm 9.2 3.2 7.2 87 1.0 NW 28 46 15 25 - - 2.2
22/05:30pm 9.4 4.1 6.8 84 1.3 NW 24 43 13 23 - - 2.2
22/05:00pm 9.5 4.9 6.6 82 1.4 NW 20 33 11 18 - - 2.2
22/04:30pm 9.7 5.3 6.6 81 1.5 WNW 19 32 10 17 - - 2.2
22/04:11pm 9.6 3.5 6.5 81 1.5 WNW 28 46 15 25 - - 2.2
22/04:00pm 9.8 5.4 6.5 80 1.6 WNW 19 30 10 16 - - 2.2
22/03:30pm 10.0 3.5 6.3 78 1.8 WNW 30 44 16 24 - - 2.2
22/03:05pm 9.8 3.6 6.3 79 1.7 WNW 28 50 15 27 - - 2.2
22/03:00pm 9.9 4.2 6.6 80 1.6 WNW 26 43 14 23 - - 2.2
22/02:30pm 8.9 1.9 5.8 81 1.5 WNW 32 54 17 29 - - 2.2
22/02:02pm 8.7 2.5 6.2 84 1.2 NW 28 56 15 30 - - 2.2
22/02:00pm 8.7 2.9 6.2 84 1.2 NW 26 56 14 30 - - 2.2
22/01:30pm 8.6 1.6 5.9 83 1.3 NW 32 50 17 27 - - 2.2
22/01:00pm 8.9 1.9 5.8 81 1.5 NW 32 50 17 27 - - 2.2
22/12:30pm 10.1 0.8 6.1 76 1.9 NW 44 87 24 47 - - 2.2
22/12:22pm 10.0 2.5 6.5 79 1.7 NW 35 87 19 47 - - 2.2
22/12:21pm 9.4 2.6 6.7 83 1.3 NW 32 65 17 35 - - 2.2
22/12:01pm 9.1 1.4 6.9 86 1.1 WNW 37 56 20 30 - - 2.0
22/12:00pm 9.2 1.1 6.8 85 1.2 WNW 39 56 21 30 - - 2.0
22/11:30am 9.9 1.8 8.5 91 0.7 W 41 67 22 36 - - 1.6
22/11:00am 10.9 2.2 8.5 85 1.2 W 44 65 24 35 - - 1.6
22/10:39am 11.2 4.9 9.6 90 0.8 WNW 33 52 18 28 - - 1.6
22/10:30am 11.3 5.6 9.9 91 0.7 WNW 30 46 16 25 - - 1.4
22/10:00am 11.4 5.3 10.6 95 0.4 WNW 33 54 18 29 - - 1.4
22/09:30am 11.5 4.8 11.0 97 0.3 WNW 37 63 20 34 - - 1.4
22/09:00am 12.1 5.2 11.5 96 0.3 W 39 61 21 33 - - 13.2
22/08:49am 13.3 7.5 12.7 96 0.3 NW 35 61 19 33 - - 13.0
22/08:47am 13.4 8.0 12.8 96 0.3 NW 33 52 18 28 - - 12.8
22/08:30am 13.6 6.7 12.8 95 0.5 NW 41 63 22 34 - - 10.8
22/08:04am 13.5 7.8 12.9 96 0.3 NNW 35 61 19 33 - - 9.6
22/08:00am 13.5 7.8 13.0 97 0.3 NW 35 54 19 29 - - 9.4
22/07:30am 13.5 6.3 13.0 97 0.3 NNW 43 69 23 37 - - 8.4
22/07:00am 13.3 6.1 13.0 98 0.2 NNW 43 78 23 42 - - 7.2
22/06:30am 12.6 7.1 12.3 98 0.2 N 33 59 18 32 - - 6.6
22/06:00am 12.2 6.7 11.9 98 0.2 N 32 57 17 31 - - 5.6
22/05:34am 12.2 7.5 11.9 98 0.2 N 28 46 15 25 - - 4.2
22/05:30am 12.1 7.3 11.8 98 0.2 N 28 46 15 25 - - 4.0
22/05:02am 11.9 7.1 11.6 98 0.2 N 28 46 15 25 - - 2.6
22/05:00am 11.9 7.5 11.6 98 0.2 N 26 46 14 25 - - 2.4
22/04:43am 11.8 7.0 11.5 98 0.2 N 28 52 15 28 - - 2.2
22/04:30am 11.3 7.5 11.0 98 0.2 NNE 22 33 12 18 - - 2.0
22/04:00am 10.8 6.4 10.5 98 0.2 NNE 24 37 13 20 - - 1.0
22/03:30am 10.8 6.4 10.5 98 0.2 NNE 24 39 13 21 - - 1.0
22/03:00am 10.6 5.8 10.3 98 0.2 NNE 26 43 14 23 - - 1.0
22/02:30am 10.3 6.2 10.0 98 0.2 NNE 22 39 12 21 - - 1.0
22/02:00am 10.2 6.4 9.9 98 0.2 NNE 20 33 11 18 - - 1.0
22/01:30am 10.0 7.5 9.7 98 0.2 NNE 13 24 7 13 - - 1.0
22/01:00am 9.9 6.6 9.6 98 0.2 NE 17 24 9 13 - - 1.0
22/12:30am 9.9 7.0 9.6 98 0.2 NE 15 28 8 15 - - 1.0
22/12:00am 9.8 6.5 9.5 98 0.2 NE 17 28 9 15 - - 1.0
 
Date/Time
EST
Temp
°C
App
Temp
°C
Dew
Point
°C
Rel
Hum
%
Delta-T
°C
Wind Press
QNH
hPa
Press
MSL
hPa
Rain since
9am
mm
Dir  Spd
km/h
Gust
km/h
Spd
kts
Gust
kts
21/11:30pm 9.7 6.7 9.4 98 0.2 NE 15 24 8 13 - - 1.0
21/11:00pm 9.6 6.2 9.3 98 0.2 NE 17 30 9 16 - - 1.0
21/10:30pm 9.4 5.6 9.1 98 0.2 NE 19 33 10 18 - - 1.0
21/10:00pm 9.4 5.6 9.1 98 0.2 NE 19 26 10 14 - - 1.0
21/09:30pm 9.5 5.7 9.2 98 0.2 NE 19 24 10 13 - - 1.0
21/09:00pm 9.5 6.1 9.2 98 0.2 NNE 17 24 9 13 - - 1.0
21/08:30pm 9.5 6.1 9.2 98 0.2 NNE 17 22 9 12 - - 1.0
21/08:00pm 9.6 6.6 9.3 98 0.2 NE 15 22 8 12 - - 1.0
21/07:30pm 9.6 5.9 9.3 98 0.2 ENE 19 22 10 12 - - 1.0
21/07:00pm 9.6 8.1 9.3 98 0.2 NE 7 15 4 8 - - 1.0
21/06:30pm 9.6 6.6 9.3 98 0.2 NE 15 20 8 11 - - 1.0
21/06:00pm 9.7 7.9 9.4 98 0.2 NE 9 15 5 8 - - 1.0
21/05:30pm 9.7 7.5 9.4 98 0.2 NNE 11 15 6 8 - - 1.0
21/05:00pm 9.7 8.3 9.4 98 0.2 NNE 7 11 4 6 - - 1.0
21/04:30pm 9.8 8.4 9.5 98 0.2 NNE 7 13 4 7 - - 1.0
21/04:00pm 9.9 8.7 9.6 98 0.2 NNE 6 9 3 5 - - 1.0
21/03:30pm 9.8 8.4 9.5 98 0.2 N 7 9 4 5 - - 1.0
21/03:00pm 9.9 8.5 9.6 98 0.2 NNE 7 13 4 7 - - 1.0
21/02:30pm 9.9 8.7 9.6 98 0.2 NW 6 9 3 5 - - 1.0
21/02:00pm 9.5 8.0 9.2 98 0.2 NNE 7 9 4 5 - - 1.0
21/01:30pm 10.0 8.6 9.7 98 0.2 NE 7 11 4 6 - - 1.0
21/01:00pm 9.7 7.5 9.4 98 0.2 NNE 11 17 6 9 - - 1.0
21/12:30pm 9.3 7.4 9.0 98 0.2 N 9 15 5 8 - - 0.8
21/12:00pm 9.1 6.7 8.8 98 0.2 NNE 11 15 6 8 - - 0.8
21/11:30am 9.2 6.5 8.9 98 0.2 NNE 13 17 7 9 - - 0.8
21/11:00am 8.7 7.0 8.4 98 0.2 NNE 7 13 4 7 - - 0.8
21/10:30am 9.0 6.6 8.6 97 0.2 N 11 15 6 8 - - 0.4
21/10:00am 8.9 6.4 8.3 96 0.3 N 11 15 6 8 - - 0.2
21/09:30am 9.0 6.4 7.9 93 0.5 N 11 13 6 7 - - 0.0
21/09:00am 9.0 6.8 7.9 93 0.5 N 9 13 5 7 - - 0.0
21/08:30am 8.9 6.3 7.8 93 0.5 NNE 11 15 6 8 - - 0.0
21/08:00am 8.8 5.4 7.6 92 0.6 NE 15 22 8 12 - - 0.0
21/07:30am 9.1 5.7 7.7 91 0.7 ENE 15 19 8 10 - - 0.0
21/07:00am 8.7 5.2 7.3 91 0.7 ENE 15 15 8 8 - - 0.0
21/06:30am 8.2 5.1 7.3 94 0.4 ENE 13 15 7 8 - - 0.0
21/06:00am 7.7 4.6 7.3 97 0.2 ENE 13 15 7 8 - - 0.0
21/05:30am 7.2 4.0 6.8 97 0.2 NE 13 15 7 8 - - 0.0
21/05:00am 7.5 4.7 6.9 96 0.3 NE 11 13 6 7 - - 0.0
21/04:30am 7.9 5.4 6.7 92 0.6 ENE 9 11 5 6 - - 0.0
21/04:00am 8.6 6.2 7.1 90 0.7 E 9 13 5 7 - - 0.0
21/03:30am 8.7 6.6 6.7 87 1.0 E 7 9 4 5 - - 0.0
21/03:00am 8.5 6.4 6.8 89 0.8 E 7 9 4 5 - - 0.0
21/02:30am 8.3 5.5 6.9 91 0.7 E 11 13 6 7 - - 0.0
21/02:00am 8.1 4.8 6.6 90 0.7 E 13 15 7 8 - - 0.0
21/01:30am 8.2 5.4 6.8 91 0.7 ENE 11 15 6 8 - - 0.0
21/01:00am 8.4 5.6 7.0 91 0.7 E 11 13 6 7 - - 0.0
21/12:30am 8.4 5.6 7.0 91 0.7 E 11 13 6 7 - - 0.0
21/12:00am 8.7 4.8 7.2 90 0.7 E 17 17 9 9 - - 0.0
 
Date/Time
EST
Temp
°C
App
Temp
°C
Dew
Point
°C
Rel
Hum
%
Delta-T
°C
Wind Press
QNH
hPa
Press
MSL
hPa
Rain since
9am
mm
Dir  Spd
km/h
Gust
km/h
Spd
kts
Gust
kts
20/11:30pm 8.5 5.8 7.3 92 0.6 ENE 11 13 6 7 - - 0.0
20/11:00pm 8.7 5.2 7.3 91 0.7 ENE 15 17 8 9 - - 0.0
20/10:30pm 9.0 4.7 7.1 88 0.9 E 19 20 10 11 - - 0.0
20/10:00pm 9.1 4.7 7.2 88 0.9 E 20 22 11 12 - - 0.0
20/09:30pm 8.9 5.8 7.4 90 0.7 E 13 15 7 8 - - 0.0

Other Formats:

Comma delimited format used in spreadsheet applications
http://www.bom.gov.au/fwo/IDV60801/IDV60801.94881.axf

JavaScript Object Notation format (JSON) in row-major order
http://www.bom.gov.au/fwo/IDV60801/IDV60801.94881.json